Historyczne dane pomiarowe

Dodano dane terminowe – wersja testowa.

Dane z okresu 1951-2019

Wersja bazy: 1.34 [2019-03-16, lista zmian], aktualizacja planowana na 2019-04-15

Dane meteo z obszaru Polski uzyskane na podstawie danych udostępnionych przez Instytut Meteorologii i Gospodarki Wodnej – Państwowy Instytut Badawczy.

 

Wybierz Datę:    

       

TemperaturaWilgotnośćWiatrCiśnienieOpadyŚniegCzas trwania zjawisk
 Stacja t tx tn tng RH VA  wxwx mslp ppp RRR   cm mm wxwxwxwxwxwxwx
1956-11-09 -3.0 -0.4 -5.7 -9.1 78.3- 5.3 2.7---- 0.0------------
1956-11-08 -1.8 2.6 -4.8 -9.1 82.5- 4.3 1.3---- 0.0------------
1956-11-07 0.5 2.1 -0.5 -0.4 85.8- 5.7 3.7---- 0.4------------
1956-11-06 1.0 4.3 -0.5 -1.9 88.0- 6.7 5.3---- 0.6------------
1956-11-05 3.8 5.6 -2.6 -3.8 87.8- 7.3 5.0---- 1.8------------
1956-11-04 -0.4 4.0 -3.5 -7.6 75.5- 1.7 2.7---- 0.0------------
1956-11-03 -1.3 3.1 -6.7 -8.3 81.8- 2.3 1.3---- 0.0-- 1---------
1956-11-02 -1.2 0.9 -2.2 -4.2 93.3- 8.0 1.0---- 1.1------------
1956-11-01 -1.5 3.0 -8.3-11.4 72.3- 7.0 2.0---- 1.1------------
1956-10-31 -5.3 0.0 -6.6 -6.0 79.0- 2.3 4.3---- 0.0------------
1956-10-30 2.4 5.9 -0.3 3.5 92.3- 8.0 4.0---- 0.8------------
1956-10-29 4.3 7.9 1.6 1.3 89.0- 6.7 4.0---- 1.2------------
1956-10-28 7.9 10.6 3.8 1.8 96.3- 8.0 2.3---- 15.4------------
1956-10-27 9.2 11.2 6.1 6.4 95.0- 5.3 2.7---- 1.9------------
1956-10-26 7.2 8.7 6.1 4.7 96.8- 8.0 3.0---- 1.5------------
1956-10-25 9.9 16.8 5.7 4.3 83.5- 2.0 4.0---- 0.0------------
1956-10-24 11.0 16.7 5.7 2.5 84.5- 4.3 2.7---- 0.0------------
1956-10-23 8.3 12.1 5.9 4.8 92.3- 3.7 2.3---- 0.0------------
1956-10-22 10.6 16.0 7.7 5.8 92.3- 2.0 2.0---- 0.0------------
1956-10-21 12.9 17.1 10.0 6.7 85.5- 5.7 1.3---- 0.0------------
1956-10-20 10.9 14.0 7.5 3.3 90.0- 7.0 1.3---- 0.0------------
1956-10-19 10.9 13.2 9.5 9.0 95.0- 6.7 2.3---- 0.4------------
1956-10-18 10.5 14.0 5.0 3.0 91.3- 8.0 2.7---- 1.0------------
1956-10-17 7.6 14.9 1.6 -1.2 77.0- 0.7 2.7---- 0.0------------
1956-10-16 5.7 12.4 0.2 -4.2 80.8- 0.0 1.0---- 0.0------------
1956-10-15 5.0 10.6 1.2 -1.9 87.0- 0.3 1.3---- 0.0------------
1956-10-14 8.2 12.5 4.5 8.6 75.8- 3.7 5.0---- 2.1------------
1956-10-13 10.1 12.4 7.1 5.8 78.5- 7.3 8.3---- 0.4------------
1956-10-12 9.0 12.4 6.6 6.0 82.8- 7.3 4.0---- 0.0------------
1956-10-11 7.2 11.0 1.0 -2.8 78.0- 4.0 3.0---- 0.0------------
1956-10-10 2.9 8.9 -0.5 -2.4 83.0- 0.7 1.7---- 0.0------------
1956-10-09 6.7 9.2 2.6 0.1 90.8- 8.0 3.3---- 2.2------------
1956-10-08 4.9 9.2 0.9 -0.6 79.3- 2.3 2.0---- 0.0------------
1956-10-07 5.3 8.7 3.7 4.4 86.0- 5.0 5.7---- 3.9------------
1956-10-06 5.3 8.0 4.1 4.6 92.8- 8.0 5.3---- 24.0------------
1956-10-05 9.2 13.9 7.0 6.0 83.0- 6.7 2.7---- 1.0------------
1956-10-04 10.5 12.0 8.7 5.0 97.0- 8.0 2.3---- 6.9------------
1956-10-03 13.8 19.5 10.4 11.4 81.5- 4.7 4.0---- 1.7------------
1956-10-02 17.8 25.6 12.2 8.7 70.0- 1.7 4.3---- 0.0------------
1956-10-01 17.3 24.4 10.1 6.8 76.0- 2.7 2.3---- 0.0------------
1956-09-30 13.6 19.3 11.5 9.9 80.8- 2.0 1.7---- 0.0------------
1956-09-29 16.1 20.1 12.8 10.9 79.5- 6.7 3.0---- 0.5------------
1956-09-28 14.7 18.1 12.0 9.6 77.0- 6.0 3.3---- 0.0------------
1956-09-27 15.2 22.8 11.3 7.4 75.0- 2.3 2.7---- 0.0------------
1956-09-26 12.8 22.6 3.5 2.3 73.5- 0.0 3.0---- 0.0------------
1956-09-25 15.0 23.3 6.3 -0.1 60.5- 0.0 2.7---- 0.0------------
1956-09-24 9.6 16.8 0.3 1.1 62.3- 0.0 4.3---- 0.0------------
1956-09-23 11.2 19.0 5.7 2.3 80.3- 0.7 3.3---- 0.0------------
1956-09-22 11.8 19.7 4.3 1.6 80.3- 0.0 2.0---- 0.0------------
1956-09-21 11.4 19.1 3.7 0.0 76.3- 0.0 1.3---- 0.0------------
1956-09-20 9.6 17.2 4.0 1.8 78.0- 3.0 3.0---- 0.0------------
1956-09-19 9.3 16.4 2.6 -0.9 78.0- 0.7 1.3---- 0.0------------
1956-09-18 8.2 13.8 2.3 1.3 84.8- 1.3 3.0---- 0.0------------
1956-09-17 7.2 10.8 5.5 7.0 96.8- 5.3 2.3---- 5.3------------
1956-09-16 10.7 15.3 6.1 2.6 82.0- 4.3 3.3---- 2.6------------
1956-09-15 10.5 14.3 5.7 2.2 90.3- 6.7 1.3---- 0.5------------
1956-09-14 8.8 12.9 5.4 3.0 92.0- 5.0 2.3---- 0.0------------
1956-09-13 9.3 13.0 6.9 5.7 89.3- 7.3 2.7---- 2.3------------
1956-09-12 10.5 13.7 7.3 8.9 94.8- 4.3 4.3---- 11.1------------
1956-09-11 13.7 17.8 12.0 13.1 91.5- 5.7 2.3---- 3.2------------
205.9 ms

 

Źródłem pochodzenia danych jest Instytut Meteorologii i Gospodarki Wodnej – Państwowy Instytut Badawczy. Dane Instytutu Meteorologii i Gospodarki Wodnej – Państwowego Instytutu Badawczego zostały przetworzone.

Dane źródłowe można odnaleźć na stronie https://dane.imgw.pl